sensor_id;sensor_type;location;lat;lon;timestamp;P1;durP1;ratioP1;P2;durP2;ratioP2
23113;SDS011;11726;50.122;8.832;2023-02-28T00:00:38;3.33;;;2.53;;
23113;SDS011;11726;50.122;8.832;2023-02-28T00:03:05;3.78;;;2.67;;
23113;SDS011;11726;50.122;8.832;2023-02-28T00:05:32;3.90;;;2.72;;
23113;SDS011;11726;50.122;8.832;2023-02-28T00:07:59;5.45;;;3.33;;
23113;SDS011;11726;50.122;8.832;2023-02-28T00:10:27;4.68;;;3.05;;
23113;SDS011;11726;50.122;8.832;2023-02-28T00:12:55;3.45;;;2.92;;
23113;SDS011;11726;50.122;8.832;2023-02-28T00:15:25;3.95;;;2.90;;
23113;SDS011;11726;50.122;8.832;2023-02-28T00:17:52;3.60;;;3.28;;
23113;SDS011;11726;50.122;8.832;2023-02-28T00:20:19;3.55;;;3.00;;
23113;SDS011;11726;50.122;8.832;2023-02-28T00:22:47;4.45;;;3.03;;
23113;SDS011;11726;50.122;8.832;2023-02-28T00:25:17;3.85;;;3.25;;
23113;SDS011;11726;50.122;8.832;2023-02-28T00:27:49;3.63;;;3.00;;
23113;SDS011;11726;50.122;8.832;2023-02-28T00:30:17;3.55;;;3.25;;
23113;SDS011;11726;50.122;8.832;2023-02-28T00:32:46;4.53;;;3.63;;
23113;SDS011;11726;50.122;8.832;2023-02-28T00:35:12;5.00;;;3.35;;
23113;SDS011;11726;50.122;8.832;2023-02-28T00:37:39;4.10;;;3.60;;
23113;SDS011;11726;50.122;8.832;2023-02-28T00:40:07;4.25;;;3.60;;
23113;SDS011;11726;50.122;8.832;2023-02-28T00:42:35;4.35;;;3.90;;
23113;SDS011;11726;50.122;8.832;2023-02-28T00:45:03;4.55;;;3.88;;
23113;SDS011;11726;50.122;8.832;2023-02-28T00:47:31;4.38;;;3.67;;
23113;SDS011;11726;50.122;8.832;2023-02-28T00:49:58;6.88;;;4.00;;
23113;SDS011;11726;50.122;8.832;2023-02-28T00:52:25;5.40;;;4.07;;
23113;SDS011;11726;50.122;8.832;2023-02-28T00:54:52;5.38;;;4.00;;
23113;SDS011;11726;50.122;8.832;2023-02-28T00:57:19;5.43;;;4.40;;
23113;SDS011;11726;50.122;8.832;2023-02-28T00:59:45;4.72;;;4.20;;
23113;SDS011;11726;50.122;8.832;2023-02-28T01:02:12;4.78;;;3.97;;
23113;SDS011;11726;50.122;8.832;2023-02-28T01:04:39;6.22;;;4.53;;
23113;SDS011;11726;50.122;8.832;2023-02-28T01:07:05;6.25;;;4.72;;
23113;SDS011;11726;50.122;8.832;2023-02-28T01:09:32;6.95;;;4.50;;
23113;SDS011;11726;50.122;8.832;2023-02-28T01:11:59;6.05;;;4.80;;
23113;SDS011;11726;50.122;8.832;2023-02-28T01:14:25;6.95;;;4.57;;
23113;SDS011;11726;50.122;8.832;2023-02-28T01:16:52;4.85;;;3.75;;
23113;SDS011;11726;50.122;8.832;2023-02-28T01:19:18;5.55;;;4.10;;
23113;SDS011;11726;50.122;8.832;2023-02-28T01:21:47;5.88;;;4.63;;
23113;SDS011;11726;50.122;8.832;2023-02-28T01:24:14;5.85;;;4.45;;
23113;SDS011;11726;50.122;8.832;2023-02-28T01:26:40;7.72;;;5.43;;
23113;SDS011;11726;50.122;8.832;2023-02-28T01:29:07;6.18;;;4.85;;
23113;SDS011;11726;50.122;8.832;2023-02-28T01:31:34;6.50;;;4.50;;
23113;SDS011;11726;50.122;8.832;2023-02-28T01:34:00;6.30;;;5.05;;
23113;SDS011;11726;50.122;8.832;2023-02-28T01:36:28;6.95;;;5.22;;
23113;SDS011;11726;50.122;8.832;2023-02-28T01:38:55;6.47;;;4.95;;
23113;SDS011;11726;50.122;8.832;2023-02-28T01:41:26;6.65;;;4.80;;
23113;SDS011;11726;50.122;8.832;2023-02-28T01:43:56;7.00;;;4.68;;
23113;SDS011;11726;50.122;8.832;2023-02-28T01:46:52;7.47;;;5.07;;
23113;SDS011;11726;50.122;8.832;2023-02-28T01:49:19;7.40;;;5.32;;
23113;SDS011;11726;50.122;8.832;2023-02-28T01:51:49;5.32;;;4.82;;
23113;SDS011;11726;50.122;8.832;2023-02-28T01:54:24;7.20;;;5.68;;
23113;SDS011;11726;50.122;8.832;2023-02-28T01:56:56;6.68;;;5.00;;
23113;SDS011;11726;50.122;8.832;2023-02-28T01:59:41;6.72;;;5.32;;
23113;SDS011;11726;50.122;8.832;2023-02-28T02:02:12;8.13;;;5.20;;
23113;SDS011;11726;50.122;8.832;2023-02-28T02:04:41;6.85;;;4.80;;
23113;SDS011;11726;50.122;8.832;2023-02-28T02:07:16;6.40;;;5.50;;
23113;SDS011;11726;50.122;8.832;2023-02-28T02:09:43;5.47;;;4.50;;
23113;SDS011;11726;50.122;8.832;2023-02-28T02:12:15;6.07;;;4.70;;
23113;SDS011;11726;50.122;8.832;2023-02-28T02:14:53;5.18;;;4.68;;
23113;SDS011;11726;50.122;8.832;2023-02-28T02:17:44;5.93;;;4.93;;
23113;SDS011;11726;50.122;8.832;2023-02-28T02:23:44;5.75;;;5.15;;
23113;SDS011;11726;50.122;8.832;2023-02-28T02:29:16;5.70;;;4.45;;
23113;SDS011;11726;50.122;8.832;2023-02-28T02:32:09;5.10;;;4.40;;
23113;SDS011;11726;50.122;8.832;2023-02-28T02:35:15;5.53;;;4.40;;
23113;SDS011;11726;50.122;8.832;2023-02-28T02:37:47;5.88;;;4.40;;
23113;SDS011;11726;50.122;8.832;2023-02-28T02:40:23;7.22;;;4.47;;
23113;SDS011;11726;50.122;8.832;2023-02-28T02:45:52;4.68;;;3.90;;
23113;SDS011;11726;50.122;8.832;2023-02-28T02:48:24;5.05;;;4.20;;
23113;SDS011;11726;50.122;8.832;2023-02-28T02:51:01;4.25;;;3.85;;
23113;SDS011;11726;50.122;8.832;2023-02-28T02:53:41;4.68;;;4.13;;
23113;SDS011;11726;50.122;8.832;2023-02-28T02:56:11;5.20;;;4.35;;
23113;SDS011;11726;50.122;8.832;2023-02-28T02:58:40;5.63;;;4.40;;
23113;SDS011;11726;50.122;8.832;2023-02-28T03:01:12;4.07;;;3.67;;
23113;SDS011;11726;50.122;8.832;2023-02-28T03:06:23;4.10;;;3.67;;
23113;SDS011;11726;50.122;8.832;2023-02-28T03:08:50;5.18;;;3.78;;
23113;SDS011;11726;50.122;8.832;2023-02-28T03:11:17;5.00;;;3.95;;
23113;SDS011;11726;50.122;8.832;2023-02-28T03:13:50;5.03;;;3.92;;
23113;SDS011;11726;50.122;8.832;2023-02-28T03:24:55;5.10;;;4.00;;
23113;SDS011;11726;50.122;8.832;2023-02-28T03:27:30;5.35;;;4.30;;
23113;SDS011;11726;50.122;8.832;2023-02-28T03:35:07;5.22;;;3.85;;
23113;SDS011;11726;50.122;8.832;2023-02-28T03:37:40;5.07;;;3.97;;
23113;SDS011;11726;50.122;8.832;2023-02-28T03:40:14;4.60;;;4.13;;
23113;SDS011;11726;50.122;8.832;2023-02-28T03:42:47;5.32;;;3.80;;
23113;SDS011;11726;50.122;8.832;2023-02-28T03:45:24;5.18;;;4.00;;
23113;SDS011;11726;50.122;8.832;2023-02-28T03:47:55;4.32;;;3.92;;
23113;SDS011;11726;50.122;8.832;2023-02-28T03:50:34;4.75;;;4.00;;
23113;SDS011;11726;50.122;8.832;2023-02-28T03:53:06;6.80;;;4.00;;
23113;SDS011;11726;50.122;8.832;2023-02-28T03:55:46;6.32;;;4.05;;
23113;SDS011;11726;50.122;8.832;2023-02-28T04:00:58;5.40;;;4.00;;
23113;SDS011;11726;50.122;8.832;2023-02-28T04:03:37;4.35;;;3.70;;
23113;SDS011;11726;50.122;8.832;2023-02-28T04:06:12;5.03;;;3.60;;
23113;SDS011;11726;50.122;8.832;2023-02-28T04:08:42;7.95;;;3.80;;
23113;SDS011;11726;50.122;8.832;2023-02-28T04:11:16;5.15;;;3.60;;
23113;SDS011;11726;50.122;8.832;2023-02-28T04:13:47;4.57;;;3.83;;
23113;SDS011;11726;50.122;8.832;2023-02-28T04:16:14;4.10;;;3.70;;
23113;SDS011;11726;50.122;8.832;2023-02-28T04:18:59;3.80;;;3.35;;
23113;SDS011;11726;50.122;8.832;2023-02-28T04:21:29;3.75;;;3.35;;
23113;SDS011;11726;50.122;8.832;2023-02-28T04:23:58;5.45;;;3.65;;
23113;SDS011;11726;50.122;8.832;2023-02-28T04:26:30;4.72;;;3.80;;
23113;SDS011;11726;50.122;8.832;2023-02-28T04:29:02;3.83;;;3.10;;
23113;SDS011;11726;50.122;8.832;2023-02-28T04:31:30;4.18;;;3.38;;
23113;SDS011;11726;50.122;8.832;2023-02-28T04:33:58;4.40;;;3.30;;
23113;SDS011;11726;50.122;8.832;2023-02-28T04:36:25;4.90;;;3.42;;
23113;SDS011;11726;50.122;8.832;2023-02-28T04:38:51;3.78;;;3.20;;
23113;SDS011;11726;50.122;8.832;2023-02-28T04:41:18;4.45;;;3.50;;
23113;SDS011;11726;50.122;8.832;2023-02-28T04:43:45;3.60;;;3.30;;
23113;SDS011;11726;50.122;8.832;2023-02-28T04:46:12;3.80;;;3.25;;
23113;SDS011;11726;50.122;8.832;2023-02-28T04:48:39;4.50;;;3.40;;
23113;SDS011;11726;50.122;8.832;2023-02-28T04:51:10;3.88;;;2.97;;
23113;SDS011;11726;50.122;8.832;2023-02-28T04:53:38;5.78;;;3.70;;
23113;SDS011;11726;50.122;8.832;2023-02-28T04:56:07;5.80;;;3.85;;
23113;SDS011;11726;50.122;8.832;2023-02-28T04:58:34;5.63;;;4.20;;
23113;SDS011;11726;50.122;8.832;2023-02-28T05:01:02;3.20;;;2.90;;
23113;SDS011;11726;50.122;8.832;2023-02-28T05:03:30;8.48;;;5.80;;
23113;SDS011;11726;50.122;8.832;2023-02-28T05:05:57;6.97;;;4.55;;
23113;SDS011;11726;50.122;8.832;2023-02-28T05:08:23;6.35;;;4.10;;
23113;SDS011;11726;50.122;8.832;2023-02-28T05:10:51;5.43;;;3.40;;
23113;SDS011;11726;50.122;8.832;2023-02-28T05:13:17;4.88;;;3.58;;
23113;SDS011;11726;50.122;8.832;2023-02-28T05:15:44;4.97;;;3.88;;
23113;SDS011;11726;50.122;8.832;2023-02-28T05:18:11;5.57;;;4.07;;
23113;SDS011;11726;50.122;8.832;2023-02-28T05:20:37;3.80;;;2.97;;
23113;SDS011;11726;50.122;8.832;2023-02-28T05:23:04;6.35;;;3.42;;
23113;SDS011;11726;50.122;8.832;2023-02-28T05:25:30;4.85;;;3.17;;
23113;SDS011;11726;50.122;8.832;2023-02-28T05:27:57;3.92;;;3.28;;
23113;SDS011;11726;50.122;8.832;2023-02-28T05:30:24;4.80;;;3.25;;
23113;SDS011;11726;50.122;8.832;2023-02-28T05:32:51;3.75;;;2.80;;
23113;SDS011;11726;50.122;8.832;2023-02-28T05:35:17;4.03;;;3.13;;
23113;SDS011;11726;50.122;8.832;2023-02-28T05:37:44;4.20;;;3.13;;
23113;SDS011;11726;50.122;8.832;2023-02-28T05:40:11;4.53;;;3.25;;
23113;SDS011;11726;50.122;8.832;2023-02-28T05:42:38;3.00;;;2.67;;
23113;SDS011;11726;50.122;8.832;2023-02-28T05:45:05;3.80;;;2.95;;
23113;SDS011;11726;50.122;8.832;2023-02-28T05:47:32;5.03;;;2.85;;
23113;SDS011;11726;50.122;8.832;2023-02-28T05:49:59;6.43;;;3.47;;
23113;SDS011;11726;50.122;8.832;2023-02-28T05:52:27;6.60;;;3.85;;
23113;SDS011;11726;50.122;8.832;2023-02-28T05:54:56;5.20;;;3.67;;
23113;SDS011;11726;50.122;8.832;2023-02-28T05:57:22;4.40;;;2.95;;
23113;SDS011;11726;50.122;8.832;2023-02-28T05:59:50;6.28;;;2.85;;
23113;SDS011;11726;50.122;8.832;2023-02-28T06:02:17;5.35;;;3.30;;
23113;SDS011;11726;50.122;8.832;2023-02-28T06:04:44;4.05;;;3.20;;
23113;SDS011;11726;50.122;8.832;2023-02-28T06:07:11;8.27;;;3.10;;
23113;SDS011;11726;50.122;8.832;2023-02-28T06:09:38;6.07;;;3.53;;
23113;SDS011;11726;50.122;8.832;2023-02-28T06:12:05;4.40;;;3.33;;
23113;SDS011;11726;50.122;8.832;2023-02-28T06:14:35;5.15;;;3.15;;
23113;SDS011;11726;50.122;8.832;2023-02-28T06:17:02;3.95;;;3.13;;
23113;SDS011;11726;50.122;8.832;2023-02-28T06:19:29;7.35;;;3.72;;
23113;SDS011;11726;50.122;8.832;2023-02-28T06:21:57;7.32;;;3.97;;
23113;SDS011;11726;50.122;8.832;2023-02-28T06:24:25;6.60;;;3.80;;
23113;SDS011;11726;50.122;8.832;2023-02-28T06:26:54;5.90;;;4.07;;
23113;SDS011;11726;50.122;8.832;2023-02-28T06:29:21;5.15;;;3.65;;
23113;SDS011;11726;50.122;8.832;2023-02-28T06:31:48;9.32;;;4.63;;
23113;SDS011;11726;50.122;8.832;2023-02-28T06:34:14;6.97;;;4.13;;
23113;SDS011;11726;50.122;8.832;2023-02-28T06:36:42;5.93;;;3.72;;
23113;SDS011;11726;50.122;8.832;2023-02-28T06:39:09;5.03;;;4.18;;
23113;SDS011;11726;50.122;8.832;2023-02-28T06:41:36;6.75;;;3.63;;
23113;SDS011;11726;50.122;8.832;2023-02-28T06:44:20;4.72;;;3.30;;
23113;SDS011;11726;50.122;8.832;2023-02-28T06:46:47;5.80;;;3.63;;
23113;SDS011;11726;50.122;8.832;2023-02-28T06:49:14;6.72;;;3.25;;
23113;SDS011;11726;50.122;8.832;2023-02-28T06:51:42;4.03;;;3.00;;
23113;SDS011;11726;50.122;8.832;2023-02-28T06:54:11;4.30;;;3.33;;
23113;SDS011;11726;50.122;8.832;2023-02-28T06:56:38;4.22;;;3.38;;
23113;SDS011;11726;50.122;8.832;2023-02-28T06:59:05;5.13;;;3.53;;
23113;SDS011;11726;50.122;8.832;2023-02-28T07:01:32;3.80;;;3.20;;
23113;SDS011;11726;50.122;8.832;2023-02-28T07:03:59;5.30;;;3.40;;
23113;SDS011;11726;50.122;8.832;2023-02-28T07:06:26;5.60;;;3.65;;
23113;SDS011;11726;50.122;8.832;2023-02-28T07:08:53;4.82;;;3.65;;
23113;SDS011;11726;50.122;8.832;2023-02-28T07:11:21;7.68;;;4.25;;
23113;SDS011;11726;50.122;8.832;2023-02-28T07:13:49;6.63;;;3.72;;
23113;SDS011;11726;50.122;8.832;2023-02-28T07:16:17;5.07;;;3.63;;
23113;SDS011;11726;50.122;8.832;2023-02-28T07:18:44;7.13;;;3.67;;
23113;SDS011;11726;50.122;8.832;2023-02-28T07:21:10;5.10;;;3.70;;
23113;SDS011;11726;50.122;8.832;2023-02-28T07:23:38;3.95;;;3.30;;
23113;SDS011;11726;50.122;8.832;2023-02-28T07:26:06;4.40;;;3.30;;
23113;SDS011;11726;50.122;8.832;2023-02-28T07:28:33;4.97;;;3.80;;
23113;SDS011;11726;50.122;8.832;2023-02-28T07:31:06;5.28;;;4.00;;
23113;SDS011;11726;50.122;8.832;2023-02-28T07:33:34;5.45;;;3.92;;
23113;SDS011;11726;50.122;8.832;2023-02-28T07:36:02;6.90;;;3.90;;
23113;SDS011;11726;50.122;8.832;2023-02-28T07:38:30;5.80;;;4.10;;
23113;SDS011;11726;50.122;8.832;2023-02-28T07:41:00;5.65;;;4.25;;
23113;SDS011;11726;50.122;8.832;2023-02-28T07:43:27;5.55;;;4.57;;
23113;SDS011;11726;50.122;8.832;2023-02-28T07:45:53;7.30;;;4.50;;
23113;SDS011;11726;50.122;8.832;2023-02-28T07:48:20;5.68;;;4.30;;
23113;SDS011;11726;50.122;8.832;2023-02-28T07:50:53;5.30;;;4.07;;
23113;SDS011;11726;50.122;8.832;2023-02-28T07:53:21;4.85;;;3.63;;
23113;SDS011;11726;50.122;8.832;2023-02-28T07:55:48;5.60;;;4.13;;
23113;SDS011;11726;50.122;8.832;2023-02-28T07:58:15;4.75;;;3.90;;
23113;SDS011;11726;50.122;8.832;2023-02-28T08:00:41;5.65;;;3.83;;
23113;SDS011;11726;50.122;8.832;2023-02-28T08:03:11;5.80;;;3.90;;
23113;SDS011;11726;50.122;8.832;2023-02-28T08:05:41;4.47;;;3.90;;
23113;SDS011;11726;50.122;8.832;2023-02-28T08:08:08;4.95;;;4.10;;
23113;SDS011;11726;50.122;8.832;2023-02-28T08:10:35;5.32;;;3.80;;
23113;SDS011;11726;50.122;8.832;2023-02-28T08:13:02;5.30;;;3.75;;
23113;SDS011;11726;50.122;8.832;2023-02-28T08:15:29;4.85;;;3.97;;
23113;SDS011;11726;50.122;8.832;2023-02-28T08:17:56;5.45;;;3.95;;
23113;SDS011;11726;50.122;8.832;2023-02-28T08:20:24;5.68;;;4.28;;
23113;SDS011;11726;50.122;8.832;2023-02-28T08:22:51;5.38;;;3.90;;
23113;SDS011;11726;50.122;8.832;2023-02-28T08:25:18;6.65;;;4.38;;
23113;SDS011;11726;50.122;8.832;2023-02-28T08:27:45;6.03;;;4.32;;
23113;SDS011;11726;50.122;8.832;2023-02-28T08:30:12;6.30;;;3.78;;
23113;SDS011;11726;50.122;8.832;2023-02-28T08:32:41;5.72;;;4.10;;
23113;SDS011;11726;50.122;8.832;2023-02-28T08:35:08;4.88;;;3.80;;
23113;SDS011;11726;50.122;8.832;2023-02-28T08:37:38;5.32;;;3.67;;
23113;SDS011;11726;50.122;8.832;2023-02-28T08:40:04;5.50;;;4.35;;
23113;SDS011;11726;50.122;8.832;2023-02-28T08:42:32;5.75;;;3.80;;
23113;SDS011;11726;50.122;8.832;2023-02-28T08:44:58;6.03;;;3.80;;
23113;SDS011;11726;50.122;8.832;2023-02-28T08:47:25;8.38;;;4.00;;
23113;SDS011;11726;50.122;8.832;2023-02-28T08:49:52;4.90;;;3.55;;
23113;SDS011;11726;50.122;8.832;2023-02-28T08:52:19;5.85;;;3.50;;
23113;SDS011;11726;50.122;8.832;2023-02-28T08:54:46;5.22;;;3.90;;
23113;SDS011;11726;50.122;8.832;2023-02-28T08:57:12;5.60;;;3.80;;
23113;SDS011;11726;50.122;8.832;2023-02-28T08:59:39;5.80;;;3.85;;
23113;SDS011;11726;50.122;8.832;2023-02-28T09:02:07;5.97;;;4.20;;
23113;SDS011;11726;50.122;8.832;2023-02-28T09:04:35;6.15;;;3.92;;
23113;SDS011;11726;50.122;8.832;2023-02-28T09:07:02;4.93;;;4.30;;
23113;SDS011;11726;50.122;8.832;2023-02-28T09:09:28;7.10;;;4.68;;
23113;SDS011;11726;50.122;8.832;2023-02-28T09:11:56;8.68;;;4.88;;
23113;SDS011;11726;50.122;8.832;2023-02-28T09:14:23;6.80;;;4.50;;
23113;SDS011;11726;50.122;8.832;2023-02-28T09:16:49;8.23;;;4.63;;
23113;SDS011;11726;50.122;8.832;2023-02-28T09:19:16;6.97;;;4.50;;
23113;SDS011;11726;50.122;8.832;2023-02-28T09:21:43;7.80;;;4.53;;
23113;SDS011;11726;50.122;8.832;2023-02-28T09:24:09;7.25;;;3.92;;
23113;SDS011;11726;50.122;8.832;2023-02-28T09:26:38;5.30;;;4.15;;
23113;SDS011;11726;50.122;8.832;2023-02-28T09:29:16;5.97;;;3.97;;
23113;SDS011;11726;50.122;8.832;2023-02-28T09:31:43;6.05;;;4.30;;
23113;SDS011;11726;50.122;8.832;2023-02-28T09:34:10;7.00;;;4.05;;
23113;SDS011;11726;50.122;8.832;2023-02-28T09:36:37;6.75;;;4.10;;
23113;SDS011;11726;50.122;8.832;2023-02-28T09:39:11;7.53;;;4.30;;
23113;SDS011;11726;50.122;8.832;2023-02-28T09:41:42;8.15;;;4.80;;
23113;SDS011;11726;50.122;8.832;2023-02-28T09:44:31;7.25;;;4.20;;
23113;SDS011;11726;50.122;8.832;2023-02-28T09:47:10;7.22;;;4.25;;
23113;SDS011;11726;50.122;8.832;2023-02-28T09:49:58;5.90;;;4.30;;
23113;SDS011;11726;50.122;8.832;2023-02-28T09:55:01;7.05;;;4.70;;
23113;SDS011;11726;50.122;8.832;2023-02-28T09:58:09;5.68;;;4.35;;
23113;SDS011;11726;50.122;8.832;2023-02-28T10:00:53;6.28;;;4.53;;
23113;SDS011;11726;50.122;8.832;2023-02-28T10:05:56;7.57;;;4.30;;
23113;SDS011;11726;50.122;8.832;2023-02-28T10:08:35;7.25;;;4.82;;
23113;SDS011;11726;50.122;8.832;2023-02-28T10:11:21;7.18;;;4.82;;
23113;SDS011;11726;50.122;8.832;2023-02-28T10:16:48;8.13;;;4.93;;
23113;SDS011;11726;50.122;8.832;2023-02-28T10:19:24;6.82;;;4.63;;
23113;SDS011;11726;50.122;8.832;2023-02-28T10:21:59;5.45;;;4.25;;
23113;SDS011;11726;50.122;8.832;2023-02-28T10:24:40;7.45;;;4.53;;
23113;SDS011;11726;50.122;8.832;2023-02-28T10:27:13;8.32;;;4.30;;
23113;SDS011;11726;50.122;8.832;2023-02-28T10:29:47;9.25;;;3.90;;
23113;SDS011;11726;50.122;8.832;2023-02-28T10:32:17;9.25;;;4.38;;
23113;SDS011;11726;50.122;8.832;2023-02-28T10:35:28;11.70;;;7.35;;
23113;SDS011;11726;50.122;8.832;2023-02-28T10:37:39;21.42;;;11.73;;
23113;SDS011;11726;50.122;8.832;2023-02-28T10:40:29;14.13;;;8.48;;
23113;SDS011;11726;50.122;8.832;2023-02-28T10:43:12;21.95;;;11.45;;
23113;SDS011;11726;50.122;8.832;2023-02-28T10:45:52;9.55;;;5.63;;
23113;SDS011;11726;50.122;8.832;2023-02-28T10:48:36;7.55;;;5.00;;
23113;SDS011;11726;50.122;8.832;2023-02-28T10:51:10;7.00;;;5.13;;
23113;SDS011;11726;50.122;8.832;2023-02-28T10:53:48;6.05;;;4.90;;
23113;SDS011;11726;50.122;8.832;2023-02-28T10:56:27;4.90;;;3.80;;
23113;SDS011;11726;50.122;8.832;2023-02-28T10:59:02;8.40;;;5.53;;
23113;SDS011;11726;50.122;8.832;2023-02-28T11:03:56;5.35;;;4.47;;
23113;SDS011;11726;50.122;8.832;2023-02-28T11:06:26;5.70;;;4.80;;
23113;SDS011;11726;50.122;8.832;2023-02-28T11:08:58;6.78;;;4.75;;
23113;SDS011;11726;50.122;8.832;2023-02-28T11:11:40;6.53;;;5.20;;
23113;SDS011;11726;50.122;8.832;2023-02-28T11:14:48;7.47;;;5.40;;
23113;SDS011;11726;50.122;8.832;2023-02-28T11:17:18;6.95;;;5.43;;
23113;SDS011;11726;50.122;8.832;2023-02-28T11:19:48;6.50;;;4.97;;
23113;SDS011;11726;50.122;8.832;2023-02-28T11:22:19;6.32;;;5.05;;
23113;SDS011;11726;50.122;8.832;2023-02-28T11:24:51;7.13;;;5.00;;
23113;SDS011;11726;50.122;8.832;2023-02-28T11:29:57;6.47;;;5.18;;
23113;SDS011;11726;50.122;8.832;2023-02-28T11:32:25;5.97;;;4.97;;
23113;SDS011;11726;50.122;8.832;2023-02-28T11:37:30;6.75;;;5.72;;
23113;SDS011;11726;50.122;8.832;2023-02-28T11:39:58;6.95;;;4.85;;
23113;SDS011;11726;50.122;8.832;2023-02-28T11:42:36;7.85;;;4.90;;
23113;SDS011;11726;50.122;8.832;2023-02-28T11:56:03;6.70;;;5.00;;
23113;SDS011;11726;50.122;8.832;2023-02-28T11:58:52;6.93;;;5.25;;
23113;SDS011;11726;50.122;8.832;2023-02-28T12:07:23;6.80;;;5.60;;
23113;SDS011;11726;50.122;8.832;2023-02-28T12:10:06;8.23;;;5.13;;
23113;SDS011;11726;50.122;8.832;2023-02-28T12:13:05;7.35;;;5.55;;
23113;SDS011;11726;50.122;8.832;2023-02-28T12:21:31;6.65;;;5.03;;
23113;SDS011;11726;50.122;8.832;2023-02-28T12:27:10;7.18;;;5.57;;
23113;SDS011;11726;50.122;8.832;2023-02-28T12:29:49;7.72;;;5.45;;
23113;SDS011;11726;50.122;8.832;2023-02-28T12:32:25;7.38;;;6.00;;
23113;SDS011;11726;50.122;8.832;2023-02-28T12:35:02;7.38;;;5.60;;
23113;SDS011;11726;50.122;8.832;2023-02-28T12:37:40;7.75;;;5.60;;
23113;SDS011;11726;50.122;8.832;2023-02-28T12:40:13;7.03;;;5.93;;
23113;SDS011;11726;50.122;8.832;2023-02-28T12:42:45;7.25;;;5.82;;
23113;SDS011;11726;50.122;8.832;2023-02-28T12:47:48;8.65;;;5.13;;
23113;SDS011;11726;50.122;8.832;2023-02-28T12:50:24;6.18;;;5.40;;
23113;SDS011;11726;50.122;8.832;2023-02-28T12:53:54;6.80;;;5.30;;
23113;SDS011;11726;50.122;8.832;2023-02-28T12:56:04;8.57;;;5.35;;
23113;SDS011;11726;50.122;8.832;2023-02-28T12:58:54;6.03;;;5.03;;
23113;SDS011;11726;50.122;8.832;2023-02-28T13:10:48;7.07;;;5.78;;
23113;SDS011;11726;50.122;8.832;2023-02-28T13:13:24;7.55;;;5.82;;
23113;SDS011;11726;50.122;8.832;2023-02-28T13:16:03;11.75;;;5.82;;
23113;SDS011;11726;50.122;8.832;2023-02-28T13:18:37;7.07;;;5.50;;
23113;SDS011;11726;50.122;8.832;2023-02-28T13:21:24;6.75;;;5.68;;
23113;SDS011;11726;50.122;8.832;2023-02-28T13:28:58;8.77;;;6.88;;
23113;SDS011;11726;50.122;8.832;2023-02-28T13:34:32;7.60;;;5.40;;
23113;SDS011;11726;50.122;8.832;2023-02-28T13:40:49;7.53;;;5.60;;
23113;SDS011;11726;50.122;8.832;2023-02-28T13:43:03;7.50;;;5.45;;
23113;SDS011;11726;50.122;8.832;2023-02-28T13:45:35;6.97;;;5.65;;
23113;SDS011;11726;50.122;8.832;2023-02-28T13:48:14;7.30;;;5.10;;
23113;SDS011;11726;50.122;8.832;2023-02-28T13:50:43;8.02;;;5.95;;
23113;SDS011;11726;50.122;8.832;2023-02-28T14:01:13;6.65;;;5.60;;
23113;SDS011;11726;50.122;8.832;2023-02-28T14:06:54;8.70;;;6.03;;
23113;SDS011;11726;50.122;8.832;2023-02-28T14:09:33;8.85;;;5.97;;
23113;SDS011;11726;50.122;8.832;2023-02-28T14:18:25;7.72;;;5.45;;
23113;SDS011;11726;50.122;8.832;2023-02-28T14:26:53;8.98;;;7.05;;
23113;SDS011;11726;50.122;8.832;2023-02-28T14:29:59;9.27;;;7.10;;
23113;SDS011;11726;50.122;8.832;2023-02-28T14:32:43;8.77;;;6.18;;
23113;SDS011;11726;50.122;8.832;2023-02-28T14:38:27;8.35;;;6.20;;
23113;SDS011;11726;50.122;8.832;2023-02-28T14:43:57;9.68;;;6.63;;
23113;SDS011;11726;50.122;8.832;2023-02-28T14:46:32;8.45;;;7.03;;
23113;SDS011;11726;50.122;8.832;2023-02-28T14:49:06;7.10;;;6.03;;
23113;SDS011;11726;50.122;8.832;2023-02-28T14:51:48;7.03;;;5.72;;
23113;SDS011;11726;50.122;8.832;2023-02-28T14:54:16;7.90;;;6.32;;
23113;SDS011;11726;50.122;8.832;2023-02-28T14:56:50;7.90;;;6.15;;
23113;SDS011;11726;50.122;8.832;2023-02-28T14:59:28;7.47;;;6.53;;
23113;SDS011;11726;50.122;8.832;2023-02-28T15:02:23;8.20;;;6.15;;
23113;SDS011;11726;50.122;8.832;2023-02-28T15:04:55;8.05;;;6.35;;
23113;SDS011;11726;50.122;8.832;2023-02-28T15:07:23;8.20;;;6.07;;
23113;SDS011;11726;50.122;8.832;2023-02-28T15:10:08;7.20;;;5.75;;
23113;SDS011;11726;50.122;8.832;2023-02-28T15:13:00;7.30;;;5.90;;
23113;SDS011;11726;50.122;8.832;2023-02-28T15:15:47;9.07;;;6.53;;
23113;SDS011;11726;50.122;8.832;2023-02-28T15:21:33;8.25;;;6.13;;
23113;SDS011;11726;50.122;8.832;2023-02-28T15:24:05;8.30;;;5.68;;
23113;SDS011;11726;50.122;8.832;2023-02-28T15:26:39;6.90;;;6.00;;
23113;SDS011;11726;50.122;8.832;2023-02-28T15:29:12;9.88;;;6.10;;
23113;SDS011;11726;50.122;8.832;2023-02-28T15:31:43;9.00;;;5.97;;
23113;SDS011;11726;50.122;8.832;2023-02-28T15:34:42;7.80;;;6.10;;
23113;SDS011;11726;50.122;8.832;2023-02-28T15:40:05;9.80;;;6.13;;
23113;SDS011;11726;50.122;8.832;2023-02-28T15:42:57;6.63;;;5.35;;
23113;SDS011;11726;50.122;8.832;2023-02-28T15:45:34;9.07;;;6.43;;
23113;SDS011;11726;50.122;8.832;2023-02-28T15:48:14;8.52;;;6.05;;
23113;SDS011;11726;50.122;8.832;2023-02-28T15:53:16;8.77;;;5.57;;
23113;SDS011;11726;50.122;8.832;2023-02-28T15:55:45;8.32;;;6.20;;
23113;SDS011;11726;50.122;8.832;2023-02-28T15:58:23;7.53;;;6.30;;
23113;SDS011;11726;50.122;8.832;2023-02-28T16:01:00;8.75;;;6.75;;
23113;SDS011;11726;50.122;8.832;2023-02-28T16:03:43;8.57;;;6.40;;
23113;SDS011;11726;50.122;8.832;2023-02-28T16:08:48;8.63;;;6.30;;
23113;SDS011;11726;50.122;8.832;2023-02-28T16:11:17;10.40;;;6.22;;
23113;SDS011;11726;50.122;8.832;2023-02-28T16:13:46;9.30;;;6.82;;
23113;SDS011;11726;50.122;8.832;2023-02-28T16:16:16;8.15;;;6.70;;
23113;SDS011;11726;50.122;8.832;2023-02-28T16:18:45;8.93;;;6.57;;
23113;SDS011;11726;50.122;8.832;2023-02-28T16:21:12;8.60;;;6.43;;
23113;SDS011;11726;50.122;8.832;2023-02-28T16:23:38;9.77;;;6.32;;
23113;SDS011;11726;50.122;8.832;2023-02-28T16:26:05;10.10;;;6.50;;
23113;SDS011;11726;50.122;8.832;2023-02-28T16:28:33;9.63;;;6.43;;
23113;SDS011;11726;50.122;8.832;2023-02-28T16:31:03;9.85;;;6.50;;
23113;SDS011;11726;50.122;8.832;2023-02-28T16:33:32;9.00;;;6.10;;
23113;SDS011;11726;50.122;8.832;2023-02-28T16:35:59;7.72;;;5.68;;
23113;SDS011;11726;50.122;8.832;2023-02-28T16:38:26;9.25;;;6.68;;
23113;SDS011;11726;50.122;8.832;2023-02-28T16:40:55;8.63;;;6.22;;
23113;SDS011;11726;50.122;8.832;2023-02-28T16:43:24;8.75;;;6.10;;
23113;SDS011;11726;50.122;8.832;2023-02-28T16:45:58;8.30;;;6.13;;
23113;SDS011;11726;50.122;8.832;2023-02-28T16:48:26;9.35;;;6.35;;
23113;SDS011;11726;50.122;8.832;2023-02-28T16:50:53;11.25;;;6.57;;
23113;SDS011;11726;50.122;8.832;2023-02-28T16:53:19;8.70;;;6.28;;
23113;SDS011;11726;50.122;8.832;2023-02-28T16:55:47;7.97;;;6.63;;
23113;SDS011;11726;50.122;8.832;2023-02-28T16:58:14;9.10;;;6.30;;
23113;SDS011;11726;50.122;8.832;2023-02-28T17:00:42;7.72;;;6.25;;
23113;SDS011;11726;50.122;8.832;2023-02-28T17:03:14;9.85;;;6.82;;
23113;SDS011;11726;50.122;8.832;2023-02-28T17:05:58;9.45;;;6.28;;
23113;SDS011;11726;50.122;8.832;2023-02-28T17:08:24;8.88;;;6.15;;
23113;SDS011;11726;50.122;8.832;2023-02-28T17:10:51;9.98;;;6.78;;
23113;SDS011;11726;50.122;8.832;2023-02-28T17:13:18;8.38;;;6.60;;
23113;SDS011;11726;50.122;8.832;2023-02-28T17:15:44;8.25;;;6.65;;
23113;SDS011;11726;50.122;8.832;2023-02-28T17:18:16;9.27;;;6.45;;
23113;SDS011;11726;50.122;8.832;2023-02-28T17:20:48;10.82;;;7.10;;
23113;SDS011;11726;50.122;8.832;2023-02-28T17:23:15;10.23;;;6.70;;
23113;SDS011;11726;50.122;8.832;2023-02-28T17:25:42;9.70;;;6.53;;
23113;SDS011;11726;50.122;8.832;2023-02-28T17:28:22;9.48;;;6.72;;